sensor_id;sensor_type;location;lat;lon;timestamp;pressure;altitude;pressure_sealevel;temperature;humidity
7668;BME280;3876;42.204;24.686;2022-07-10T00:00:25;99073.72;;;20.31;95.91
7668;BME280;3876;42.204;24.686;2022-07-10T00:02:53;99058.03;;;20.20;96.19
7668;BME280;3876;42.204;24.686;2022-07-10T00:05:21;99071.94;;;20.31;96.07
7668;BME280;3876;42.204;24.686;2022-07-10T00:07:49;99077.25;;;20.30;96.33
7668;BME280;3876;42.204;24.686;2022-07-10T00:10:17;99077.25;;;20.30;95.90
7668;BME280;3876;42.204;24.686;2022-07-10T00:12:44;99073.13;;;20.27;96.40
7668;BME280;3876;42.204;24.686;2022-07-10T00:15:12;99071.34;;;20.28;96.10
7668;BME280;3876;42.204;24.686;2022-07-10T00:17:39;99070.59;;;20.26;96.56
7668;BME280;3876;42.204;24.686;2022-07-10T00:20:09;99068.13;;;20.24;96.81
7668;BME280;3876;42.204;24.686;2022-07-10T00:22:37;99065.50;;;20.24;97.00
7668;BME280;3876;42.204;24.686;2022-07-10T00:25:05;99059.69;;;20.21;97.05
7668;BME280;3876;42.204;24.686;2022-07-10T00:27:32;99065.38;;;20.26;96.85
7668;BME280;3876;42.204;24.686;2022-07-10T00:29:59;99055.72;;;20.28;96.35
7668;BME280;3876;42.204;24.686;2022-07-10T00:32:26;99047.38;;;20.23;96.28
7668;BME280;3876;42.204;24.686;2022-07-10T00:34:53;99041.72;;;20.18;96.37
7668;BME280;3876;42.204;24.686;2022-07-10T00:37:21;99035.81;;;20.16;96.53
7668;BME280;3876;42.204;24.686;2022-07-10T00:39:49;99028.31;;;20.11;96.63
7668;BME280;3876;42.204;24.686;2022-07-10T00:42:16;99028.00;;;20.16;97.26
7668;BME280;3876;42.204;24.686;2022-07-10T00:44:43;99034.59;;;20.20;97.02
7668;BME280;3876;42.204;24.686;2022-07-10T00:47:11;99038.19;;;20.19;96.91
7668;BME280;3876;42.204;24.686;2022-07-10T00:49:39;99021.59;;;20.09;96.62
7668;BME280;3876;42.204;24.686;2022-07-10T00:52:08;99036.50;;;20.18;96.92
7668;BME280;3876;42.204;24.686;2022-07-10T00:54:40;99032.97;;;20.19;97.42
7668;BME280;3876;42.204;24.686;2022-07-10T00:57:08;99029.53;;;20.18;96.98
7668;BME280;3876;42.204;24.686;2022-07-10T00:59:35;99007.97;;;20.05;97.06
7668;BME280;3876;42.204;24.686;2022-07-10T01:02:04;99017.81;;;20.13;97.31
7668;BME280;3876;42.204;24.686;2022-07-10T01:04:31;99013.19;;;20.16;97.25
7668;BME280;3876;42.204;24.686;2022-07-10T01:06:59;99022.56;;;20.19;96.94
7668;BME280;3876;42.204;24.686;2022-07-10T01:09:26;99019.22;;;20.17;97.66
7668;BME280;3876;42.204;24.686;2022-07-10T01:11:56;99015.09;;;20.14;97.77
7668;BME280;3876;42.204;24.686;2022-07-10T01:14:25;99022.06;;;20.14;97.57
7668;BME280;3876;42.204;24.686;2022-07-10T01:16:52;99009.28;;;20.11;97.73
7668;BME280;3876;42.204;24.686;2022-07-10T01:19:19;99016.16;;;20.12;97.41
7668;BME280;3876;42.204;24.686;2022-07-10T01:21:47;99015.41;;;20.10;97.66
7668;BME280;3876;42.204;24.686;2022-07-10T01:24:14;98992.94;;;19.98;97.67
7668;BME280;3876;42.204;24.686;2022-07-10T01:26:41;99000.16;;;20.05;96.86
7668;BME280;3876;42.204;24.686;2022-07-10T01:29:10;99008.06;;;20.04;96.71
7668;BME280;3876;42.204;24.686;2022-07-10T01:31:37;99016.16;;;20.12;96.90
7668;BME280;3876;42.204;24.686;2022-07-10T01:34:07;99014.47;;;20.11;97.15
7668;BME280;3876;42.204;24.686;2022-07-10T01:36:35;98989.63;;;19.96;97.25
7668;BME280;3876;42.204;24.686;2022-07-10T01:39:04;99018.16;;;20.08;96.94
7668;BME280;3876;42.204;24.686;2022-07-10T01:41:31;99014.47;;;20.11;96.92
7668;BME280;3876;42.204;24.686;2022-07-10T01:43:58;99017.59;;;20.16;96.72
7668;BME280;3876;42.204;24.686;2022-07-10T01:46:25;99019.13;;;20.18;96.48
7668;BME280;3876;42.204;24.686;2022-07-10T01:48:52;99013.78;;;20.20;96.42
7668;BME280;3876;42.204;24.686;2022-07-10T01:51:19;99014.63;;;20.20;96.79
7668;BME280;3876;42.204;24.686;2022-07-10T01:53:46;99003.50;;;20.18;97.15
7668;BME280;3876;42.204;24.686;2022-07-10T01:56:15;98982.06;;;20.04;97.23
7668;BME280;3876;42.204;24.686;2022-07-10T01:58:42;98992.59;;;20.13;97.37
7668;BME280;3876;42.204;24.686;2022-07-10T02:01:10;98986.78;;;20.10;97.89
7668;BME280;3876;42.204;24.686;2022-07-10T02:03:38;98976.75;;;20.05;97.59
7668;BME280;3876;42.204;24.686;2022-07-10T02:06:22;98974.97;;;20.06;98.60
7668;BME280;3876;42.204;24.686;2022-07-10T02:08:49;98978.75;;;20.02;98.75
7668;BME280;3876;42.204;24.686;2022-07-10T02:11:17;98977.31;;;19.98;99.06
7668;BME280;3876;42.204;24.686;2022-07-10T02:13:44;98976.47;;;19.97;99.33
7668;BME280;3876;42.204;24.686;2022-07-10T02:16:11;98980.88;;;19.97;99.76
7668;BME280;3876;42.204;24.686;2022-07-10T02:18:38;98985.84;;;20.00;99.85
7668;BME280;3876;42.204;24.686;2022-07-10T02:21:06;98962.63;;;19.85;99.62
7668;BME280;3876;42.204;24.686;2022-07-10T02:23:33;98983.84;;;20.03;99.74
7668;BME280;3876;42.204;24.686;2022-07-10T02:26:00;98980.66;;;20.00;100.00
7668;BME280;3876;42.204;24.686;2022-07-10T02:28:29;98981.91;;;19.94;100.00
7668;BME280;3876;42.204;24.686;2022-07-10T02:30:56;98981.91;;;19.94;100.00
7668;BME280;3876;42.204;24.686;2022-07-10T02:33:23;98987.03;;;19.96;100.00
7668;BME280;3876;42.204;24.686;2022-07-10T02:35:49;98981.31;;;19.90;100.00
7668;BME280;3876;42.204;24.686;2022-07-10T02:38:16;98983.22;;;19.88;99.86
7668;BME280;3876;42.204;24.686;2022-07-10T02:40:43;98978.25;;;19.85;99.88
7668;BME280;3876;42.204;24.686;2022-07-10T02:43:10;98981.06;;;19.82;99.88
7668;BME280;3876;42.204;24.686;2022-07-10T02:45:38;98981.03;;;19.71;100.00
7668;BME280;3876;42.204;24.686;2022-07-10T02:48:05;98986.22;;;19.71;100.00
7668;BME280;3876;42.204;24.686;2022-07-10T02:50:32;98991.66;;;19.68;100.00
7668;BME280;3876;42.204;24.686;2022-07-10T02:52:59;98993.66;;;19.65;100.00
7668;BME280;3876;42.204;24.686;2022-07-10T02:55:26;98994.38;;;19.67;100.00
7668;BME280;3876;42.204;24.686;2022-07-10T02:57:53;98995.22;;;19.67;99.72
7668;BME280;3876;42.204;24.686;2022-07-10T03:00:20;99002.28;;;19.65;99.76
7668;BME280;3876;42.204;24.686;2022-07-10T03:02:48;98998.97;;;19.63;99.66
7668;BME280;3876;42.204;24.686;2022-07-10T03:05:15;99001.28;;;19.55;99.85
7668;BME280;3876;42.204;24.686;2022-07-10T03:07:42;99002.34;;;19.53;99.70
7668;BME280;3876;42.204;24.686;2022-07-10T03:10:09;99004.56;;;19.46;99.99
7668;BME280;3876;42.204;24.686;2022-07-10T03:12:36;99009.28;;;19.41;100.00
7668;BME280;3876;42.204;24.686;2022-07-10T03:15:04;99003.53;;;19.36;100.00
7668;BME280;3876;42.204;24.686;2022-07-10T03:17:31;99013.69;;;19.28;100.00
7668;BME280;3876;42.204;24.686;2022-07-10T03:20:00;99009.16;;;19.19;100.00
7668;BME280;3876;42.204;24.686;2022-07-10T03:22:27;99012.22;;;19.24;100.00
7668;BME280;3876;42.204;24.686;2022-07-10T03:24:54;99013.28;;;19.21;100.00
7668;BME280;3876;42.204;24.686;2022-07-10T03:27:21;99011.84;;;19.17;100.00
7668;BME280;3876;42.204;24.686;2022-07-10T03:29:48;99012.91;;;19.15;100.00
7668;BME280;3876;42.204;24.686;2022-07-10T03:32:14;99001.28;;;19.08;100.00
7668;BME280;3876;42.204;24.686;2022-07-10T03:34:42;99014.97;;;19.10;100.00
7668;BME280;3876;42.204;24.686;2022-07-10T03:37:10;99005.97;;;19.03;100.00
7668;BME280;3876;42.204;24.686;2022-07-10T03:39:37;99001.72;;;19.02;100.00
7668;BME280;3876;42.204;24.686;2022-07-10T03:42:04;98992.25;;;19.01;100.00
7668;BME280;3876;42.204;24.686;2022-07-10T03:44:32;98986.78;;;18.93;100.00
7668;BME280;3876;42.204;24.686;2022-07-10T03:46:59;98982.06;;;18.98;100.00
7668;BME280;3876;42.204;24.686;2022-07-10T03:49:26;98982.59;;;19.03;100.00
7668;BME280;3876;42.204;24.686;2022-07-10T03:51:53;98983.22;;;19.06;100.00
7668;BME280;3876;42.204;24.686;2022-07-10T03:54:21;98988.28;;;19.08;100.00
7668;BME280;3876;42.204;24.686;2022-07-10T03:56:48;98982.16;;;19.09;100.00
7668;BME280;3876;42.204;24.686;2022-07-10T03:59:33;98983.00;;;19.09;100.00
7668;BME280;3876;42.204;24.686;2022-07-10T04:01:59;98983.78;;;19.10;100.00
7668;BME280;3876;42.204;24.686;2022-07-10T04:04:26;98986.91;;;19.15;100.00
7668;BME280;3876;42.204;24.686;2022-07-10T04:06:53;98991.28;;;19.14;100.00
7668;BME280;3876;42.204;24.686;2022-07-10T04:09:22;98988.56;;;19.16;100.00
7668;BME280;3876;42.204;24.686;2022-07-10T04:11:49;98986.16;;;19.13;100.00
7668;BME280;3876;42.204;24.686;2022-07-10T04:14:16;98991.66;;;19.21;100.00
7668;BME280;3876;42.204;24.686;2022-07-10T04:16:43;98991.22;;;19.27;100.00
7668;BME280;3876;42.204;24.686;2022-07-10T04:19:09;98985.78;;;19.30;100.00
7668;BME280;3876;42.204;24.686;2022-07-10T04:21:36;98984.88;;;19.31;100.00
7668;BME280;3876;42.204;24.686;2022-07-10T04:24:03;98987.03;;;19.37;100.00
7668;BME280;3876;42.204;24.686;2022-07-10T04:26:32;98995.75;;;19.36;100.00
7668;BME280;3876;42.204;24.686;2022-07-10T04:28:59;98988.91;;;19.35;100.00
7668;BME280;3876;42.204;24.686;2022-07-10T04:31:26;98991.50;;;19.35;100.00
7668;BME280;3876;42.204;24.686;2022-07-10T04:33:53;98992.22;;;19.37;100.00
7668;BME280;3876;42.204;24.686;2022-07-10T04:36:22;98981.00;;;19.36;100.00
7668;BME280;3876;42.204;24.686;2022-07-10T04:38:49;98979.03;;;19.40;100.00
7668;BME280;3876;42.204;24.686;2022-07-10T04:41:16;98981.19;;;19.46;100.00
7668;BME280;3876;42.204;24.686;2022-07-10T04:43:45;98976.50;;;19.51;100.00
7668;BME280;3876;42.204;24.686;2022-07-10T04:46:11;98984.78;;;19.56;100.00
7668;BME280;3876;42.204;24.686;2022-07-10T04:48:38;98975.53;;;19.52;100.00
7668;BME280;3876;42.204;24.686;2022-07-10T04:51:05;98973.66;;;19.54;100.00
7668;BME280;3876;42.204;24.686;2022-07-10T04:53:32;98991.56;;;19.70;100.00
7668;BME280;3876;42.204;24.686;2022-07-10T04:55:59;98989.09;;;19.79;100.00
7668;BME280;3876;42.204;24.686;2022-07-10T04:58:27;98992.97;;;20.09;100.00
7668;BME280;3876;42.204;24.686;2022-07-10T05:00:55;98983.91;;;20.36;98.88
7668;BME280;3876;42.204;24.686;2022-07-10T05:03:22;98996.34;;;20.66;96.86
7668;BME280;3876;42.204;24.686;2022-07-10T05:05:49;99004.38;;;20.97;97.05
7668;BME280;3876;42.204;24.686;2022-07-10T05:08:16;99017.34;;;21.30;94.72
7668;BME280;3876;42.204;24.686;2022-07-10T05:10:43;99004.94;;;21.54;93.67
7668;BME280;3876;42.204;24.686;2022-07-10T05:13:10;99007.91;;;21.81;92.56
7668;BME280;3876;42.204;24.686;2022-07-10T05:15:37;99008.25;;;22.09;90.87
7668;BME280;3876;42.204;24.686;2022-07-10T05:18:05;99002.25;;;22.18;88.78
7668;BME280;3876;42.204;24.686;2022-07-10T05:20:32;99003.66;;;22.22;89.64
7668;BME280;3876;42.204;24.686;2022-07-10T05:23:00;99003.41;;;22.04;88.98
7668;BME280;3876;42.204;24.686;2022-07-10T05:25:27;99012.06;;;21.84;89.75
7668;BME280;3876;42.204;24.686;2022-07-10T05:27:56;99008.97;;;21.79;91.22
7668;BME280;3876;42.204;24.686;2022-07-10T05:30:23;99002.94;;;21.78;91.50
7668;BME280;3876;42.204;24.686;2022-07-10T05:32:50;99005.44;;;21.80;92.33
7668;BME280;3876;42.204;24.686;2022-07-10T05:35:18;99007.91;;;21.81;91.79
7668;BME280;3876;42.204;24.686;2022-07-10T05:37:45;98993.00;;;21.72;92.02
7668;BME280;3876;42.204;24.686;2022-07-10T05:40:12;99003.06;;;21.77;92.17
7668;BME280;3876;42.204;24.686;2022-07-10T05:42:38;98988.63;;;21.73;91.14
7668;BME280;3876;42.204;24.686;2022-07-10T05:45:06;98998.19;;;21.83;91.43
7668;BME280;3876;42.204;24.686;2022-07-10T05:47:33;99004.69;;;21.89;92.49
7668;BME280;3876;42.204;24.686;2022-07-10T05:50:00;99002.41;;;21.84;90.47
7668;BME280;3876;42.204;24.686;2022-07-10T05:52:28;98998.59;;;21.88;90.81
7668;BME280;3876;42.204;24.686;2022-07-10T05:54:55;99002.91;;;21.89;91.40
7668;BME280;3876;42.204;24.686;2022-07-10T05:57:23;99001.47;;;21.96;90.68
7668;BME280;3876;42.204;24.686;2022-07-10T05:59:50;99002.16;;;21.98;91.13
7668;BME280;3876;42.204;24.686;2022-07-10T06:02:18;99006.41;;;22.00;89.93
7668;BME280;3876;42.204;24.686;2022-07-10T06:04:45;99005.66;;;22.09;89.87
7668;BME280;3876;42.204;24.686;2022-07-10T06:07:12;99001.06;;;22.22;89.74
7668;BME280;3876;42.204;24.686;2022-07-10T06:09:40;99009.56;;;22.24;88.81
7668;BME280;3876;42.204;24.686;2022-07-10T06:12:08;99013.59;;;22.28;87.33
7668;BME280;3876;42.204;24.686;2022-07-10T06:14:35;99018.97;;;22.36;88.44
7668;BME280;3876;42.204;24.686;2022-07-10T06:17:02;99017.50;;;22.43;87.95
7668;BME280;3876;42.204;24.686;2022-07-10T06:19:29;99016.72;;;22.52;87.87
7668;BME280;3876;42.204;24.686;2022-07-10T06:21:56;99019.03;;;22.66;89.40
7668;BME280;3876;42.204;24.686;2022-07-10T06:24:42;99016.47;;;22.76;87.88
7668;BME280;3876;42.204;24.686;2022-07-10T06:27:09;99010.13;;;22.78;85.64
7668;BME280;3876;42.204;24.686;2022-07-10T06:29:36;99014.00;;;22.74;86.44
7668;BME280;3876;42.204;24.686;2022-07-10T06:32:04;99014.78;;;22.75;86.39
7668;BME280;3876;42.204;24.686;2022-07-10T06:34:31;99020.31;;;22.81;87.12
7668;BME280;3876;42.204;24.686;2022-07-10T06:36:58;99021.72;;;22.85;86.64
7668;BME280;3876;42.204;24.686;2022-07-10T06:39:25;99017.88;;;22.89;87.28
7668;BME280;3876;42.204;24.686;2022-07-10T06:41:53;99025.88;;;22.97;86.94
7668;BME280;3876;42.204;24.686;2022-07-10T06:44:20;99023.13;;;22.99;86.40
7668;BME280;3876;42.204;24.686;2022-07-10T06:46:47;99021.50;;;23.08;84.64
7668;BME280;3876;42.204;24.686;2022-07-10T06:49:34;99022.78;;;23.23;84.99
7668;BME280;3876;42.204;24.686;2022-07-10T06:52:00;99026.22;;;23.33;84.39
7668;BME280;3876;42.204;24.686;2022-07-10T06:54:27;99034.81;;;23.44;83.24
7668;BME280;3876;42.204;24.686;2022-07-10T06:56:56;99035.09;;;23.51;83.08
7668;BME280;3876;42.204;24.686;2022-07-10T06:59:23;99028.91;;;23.52;83.25
7668;BME280;3876;42.204;24.686;2022-07-10T07:01:50;99018.97;;;23.56;82.22
7668;BME280;3876;42.204;24.686;2022-07-10T07:04:17;99026.59;;;23.68;82.11
7668;BME280;3876;42.204;24.686;2022-07-10T07:06:44;99013.06;;;23.63;81.88
7668;BME280;3876;42.204;24.686;2022-07-10T07:09:11;99019.13;;;23.73;81.99
7668;BME280;3876;42.204;24.686;2022-07-10T07:11:37;99017.47;;;23.72;81.03
7668;BME280;3876;42.204;24.686;2022-07-10T07:14:06;99017.63;;;23.71;82.91
7668;BME280;3876;42.204;24.686;2022-07-10T07:16:32;99016.50;;;23.73;83.07
7668;BME280;3876;42.204;24.686;2022-07-10T07:19:08;99016.63;;;23.81;82.91
7668;BME280;3876;42.204;24.686;2022-07-10T07:21:35;99005.19;;;23.82;82.76
7668;BME280;3876;42.204;24.686;2022-07-10T07:24:19;99011.81;;;23.86;83.98
7668;BME280;3876;42.204;24.686;2022-07-10T07:26:47;99016.88;;;23.97;84.50
7668;BME280;3876;42.204;24.686;2022-07-10T07:29:16;99015.38;;;24.04;83.98
7668;BME280;3876;42.204;24.686;2022-07-10T07:31:44;99010.66;;;24.27;82.55
7668;BME280;3876;42.204;24.686;2022-07-10T07:34:10;99014.84;;;24.57;81.32
7668;BME280;3876;42.204;24.686;2022-07-10T07:36:37;99016.13;;;24.80;79.26
7668;BME280;3876;42.204;24.686;2022-07-10T07:39:04;99015.53;;;24.96;80.31
7668;BME280;3876;42.204;24.686;2022-07-10T07:41:31;99017.13;;;25.06;79.33
7668;BME280;3876;42.204;24.686;2022-07-10T07:43:58;99009.03;;;25.18;78.11
7668;BME280;3876;42.204;24.686;2022-07-10T07:46:26;99012.06;;;25.23;77.62
7668;BME280;3876;42.204;24.686;2022-07-10T07:48:53;99007.59;;;25.33;77.17
7668;BME280;3876;42.204;24.686;2022-07-10T07:51:20;99015.22;;;25.44;78.02
7668;BME280;3876;42.204;24.686;2022-07-10T07:53:47;99012.47;;;25.45;77.08
7668;BME280;3876;42.204;24.686;2022-07-10T07:56:14;99010.66;;;25.46;77.74
7668;BME280;3876;42.204;24.686;2022-07-10T07:58:41;99012.72;;;25.52;77.08
7668;BME280;3876;42.204;24.686;2022-07-10T08:01:08;99004.91;;;25.60;76.97
7668;BME280;3876;42.204;24.686;2022-07-10T08:03:36;99009.72;;;25.65;75.72
7668;BME280;3876;42.204;24.686;2022-07-10T08:06:04;99016.38;;;25.77;75.82
7668;BME280;3876;42.204;24.686;2022-07-10T08:08:31;99015.63;;;25.84;76.08
7668;BME280;3876;42.204;24.686;2022-07-10T08:10:58;99017.72;;;25.81;74.84
7668;BME280;3876;42.204;24.686;2022-07-10T08:13:25;99016.59;;;25.83;77.28
7668;BME280;3876;42.204;24.686;2022-07-10T08:15:52;99010.72;;;25.89;75.33
7668;BME280;3876;42.204;24.686;2022-07-10T08:18:19;99009.19;;;26.04;74.44
7668;BME280;3876;42.204;24.686;2022-07-10T08:20:47;99009.94;;;26.15;75.15
7668;BME280;3876;42.204;24.686;2022-07-10T08:23:14;99016.41;;;26.20;74.11
7668;BME280;3876;42.204;24.686;2022-07-10T08:25:41;99017.59;;;26.26;72.25
7668;BME280;3876;42.204;24.686;2022-07-10T08:28:07;99021.38;;;26.23;71.62
7668;BME280;3876;42.204;24.686;2022-07-10T08:30:35;99030.44;;;26.11;70.19
7668;BME280;3876;42.204;24.686;2022-07-10T08:33:02;99024.38;;;26.10;70.85
7668;BME280;3876;42.204;24.686;2022-07-10T08:35:30;99018.69;;;25.97;71.29
7668;BME280;3876;42.204;24.686;2022-07-10T08:37:58;99012.38;;;25.90;71.20
7668;BME280;3876;42.204;24.686;2022-07-10T08:40:25;99036.34;;;25.87;72.30
7668;BME280;3876;42.204;24.686;2022-07-10T08:42:57;99033.72;;;25.87;72.17
7668;BME280;3876;42.204;24.686;2022-07-10T08:45:24;99025.09;;;25.77;73.36
7668;BME280;3876;42.204;24.686;2022-07-10T08:47:51;99036.63;;;25.84;72.58
7668;BME280;3876;42.204;24.686;2022-07-10T08:50:21;99039.34;;;25.75;72.61
7668;BME280;3876;42.204;24.686;2022-07-10T08:52:52;99036.41;;;25.78;72.96
7668;BME280;3876;42.204;24.686;2022-07-10T08:55:25;99034.22;;;25.73;73.22
7668;BME280;3876;42.204;24.686;2022-07-10T08:57:53;99033.94;;;25.76;73.74
7668;BME280;3876;42.204;24.686;2022-07-10T09:00:20;99035.50;;;25.69;72.43
7668;BME280;3876;42.204;24.686;2022-07-10T09:02:47;99040.44;;;25.72;72.12
7668;BME280;3876;42.204;24.686;2022-07-10T09:05:14;99044.69;;;25.65;71.18
7668;BME280;3876;42.204;24.686;2022-07-10T09:07:41;99045.78;;;25.63;72.74
7668;BME280;3876;42.204;24.686;2022-07-10T09:10:10;99044.97;;;25.62;73.17
7668;BME280;3876;42.204;24.686;2022-07-10T09:12:57;99045.19;;;25.51;75.13
7668;BME280;3876;42.204;24.686;2022-07-10T09:15:25;99044.97;;;25.62;75.26
7668;BME280;3876;42.204;24.686;2022-07-10T09:17:56;99039.13;;;25.68;74.43
7668;BME280;3876;42.204;24.686;2022-07-10T09:20:25;99043.59;;;25.76;73.75
7668;BME280;3876;42.204;24.686;2022-07-10T09:22:52;99040.16;;;25.75;72.89
7668;BME280;3876;42.204;24.686;2022-07-10T09:25:19;99046.59;;;25.63;72.45
7668;BME280;3876;42.204;24.686;2022-07-10T09:27:53;99038.38;;;25.58;72.27
7668;BME280;3876;42.204;24.686;2022-07-10T09:30:35;99034.56;;;25.43;71.72
7668;BME280;3876;42.204;24.686;2022-07-10T09:33:17;99028.47;;;25.52;71.87
7668;BME280;3876;42.204;24.686;2022-07-10T09:36:02;99043.69;;;25.66;71.15
7668;BME280;3876;42.204;24.686;2022-07-10T09:38:49;99032.75;;;25.71;70.80
7668;BME280;3876;42.204;24.686;2022-07-10T09:41:18;99046.44;;;25.82;69.84
7668;BME280;3876;42.204;24.686;2022-07-10T09:43:46;99046.44;;;25.82;69.75
7668;BME280;3876;42.204;24.686;2022-07-10T09:46:15;99028.00;;;25.74;68.74
7668;BME280;3876;42.204;24.686;2022-07-10T09:48:42;99047.19;;;25.92;68.80
7668;BME280;3876;42.204;24.686;2022-07-10T09:51:10;99043.28;;;25.96;70.21
7668;BME280;3876;42.204;24.686;2022-07-10T09:53:39;99040.06;;;26.02;71.81
7668;BME280;3876;42.204;24.686;2022-07-10T09:56:07;99046.16;;;26.03;70.00
7668;BME280;3876;42.204;24.686;2022-07-10T09:58:35;99049.28;;;26.06;70.40
7668;BME280;3876;42.204;24.686;2022-07-10T10:01:03;99048.97;;;26.09;70.22
7668;BME280;3876;42.204;24.686;2022-07-10T10:03:36;99048.03;;;26.10;69.78
7668;BME280;3876;42.204;24.686;2022-07-10T10:06:05;99044.09;;;26.15;70.71
7668;BME280;3876;42.204;24.686;2022-07-10T10:08:47;99036.44;;;26.21;69.65
7668;BME280;3876;42.204;24.686;2022-07-10T10:11:19;99041.91;;;26.28;69.72
7668;BME280;3876;42.204;24.686;2022-07-10T10:13:47;99026.22;;;26.36;68.75
7668;BME280;3876;42.204;24.686;2022-07-10T10:16:15;99026.63;;;26.49;71.03
7668;BME280;3876;42.204;24.686;2022-07-10T10:18:43;99030.31;;;26.72;71.21
7668;BME280;3876;42.204;24.686;2022-07-10T10:21:28;99031.63;;;27.02;66.45
7668;BME280;3876;42.204;24.686;2022-07-10T10:23:55;99029.38;;;27.15;65.20
7668;BME280;3876;42.204;24.686;2022-07-10T10:26:23;99027.25;;;27.19;65.40
7668;BME280;3876;42.204;24.686;2022-07-10T10:28:51;99030.09;;;27.33;64.76
7668;BME280;3876;42.204;24.686;2022-07-10T10:31:20;99022.09;;;27.51;66.07
7668;BME280;3876;42.204;24.686;2022-07-10T10:33:49;99002.53;;;27.61;60.03
7668;BME280;3876;42.204;24.686;2022-07-10T10:36:45;99009.28;;;27.88;63.62
7668;BME280;3876;42.204;24.686;2022-07-10T10:39:14;99013.56;;;27.97;63.08
7668;BME280;3876;42.204;24.686;2022-07-10T10:41:46;99010.25;;;28.11;57.99
7668;BME280;3876;42.204;24.686;2022-07-10T10:44:21;99000.69;;;28.27;57.88
7668;BME280;3876;42.204;24.686;2022-07-10T10:46:59;98999.28;;;28.47;59.91
7668;BME280;3876;42.204;24.686;2022-07-10T10:49:53;99001.72;;;28.64;53.77
7668;BME280;3876;42.204;24.686;2022-07-10T10:52:23;98994.34;;;28.68;54.79
7668;BME280;3876;42.204;24.686;2022-07-10T10:55:07;98993.00;;;28.72;55.05
7668;BME280;3876;42.204;24.686;2022-07-10T10:57:38;98986.06;;;28.71;55.95
7668;BME280;3876;42.204;24.686;2022-07-10T11:00:12;98977.84;;;28.66;54.87
7668;BME280;3876;42.204;24.686;2022-07-10T11:02:40;98989.75;;;28.93;57.58
7668;BME280;3876;42.204;24.686;2022-07-10T11:05:40;98983.53;;;29.16;55.99
7668;BME280;3876;42.204;24.686;2022-07-10T11:08:11;98984.16;;;29.27;55.82
7668;BME280;3876;42.204;24.686;2022-07-10T11:10:40;98976.84;;;29.37;54.69
7668;BME280;3876;42.204;24.686;2022-07-10T11:13:08;98973.06;;;29.54;56.54
7668;BME280;3876;42.204;24.686;2022-07-10T11:15:38;98961.84;;;29.52;50.38
7668;BME280;3876;42.204;24.686;2022-07-10T11:18:07;98961.09;;;29.66;55.01
7668;BME280;3876;42.204;24.686;2022-07-10T11:20:35;98967.59;;;29.78;48.48
7668;BME280;3876;42.204;24.686;2022-07-10T11:26:07;98957.97;;;30.00;53.86
7668;BME280;3876;42.204;24.686;2022-07-10T11:28:48;98957.34;;;30.12;50.47
7668;BME280;3876;42.204;24.686;2022-07-10T11:31:16;98961.56;;;30.21;47.37
7668;BME280;3876;42.204;24.686;2022-07-10T11:33:43;98961.56;;;30.21;46.93
7668;BME280;3876;42.204;24.686;2022-07-10T11:36:13;98955.53;;;30.13;46.79
7668;BME280;3876;42.204;24.686;2022-07-10T11:38:40;98950.78;;;30.08;49.16
7668;BME280;3876;42.204;24.686;2022-07-10T11:41:16;98947.94;;;29.95;48.01
7668;BME280;3876;42.204;24.686;2022-07-10T11:43:50;98954.66;;;29.83;47.61
7668;BME280;3876;42.204;24.686;2022-07-10T11:46:18;98953.03;;;29.82;48.36
7668;BME280;3876;42.204;24.686;2022-07-10T11:48:46;98942.13;;;29.85;49.63
7668;BME280;3876;42.204;24.686;2022-07-10T11:51:18;98946.94;;;29.96;49.32
7668;BME280;3876;42.204;24.686;2022-07-10T11:53:53;98938.94;;;30.04;48.67
7668;BME280;3876;42.204;24.686;2022-07-10T11:56:21;98950.50;;;30.18;47.79
7668;BME280;3876;42.204;24.686;2022-07-10T11:58:56;98939.22;;;30.24;47.93
7668;BME280;3876;42.204;24.686;2022-07-10T12:01:23;98934.91;;;29.94;47.41
7668;BME280;3876;42.204;24.686;2022-07-10T12:03:57;98941.56;;;29.67;47.63
7668;BME280;3876;42.204;24.686;2022-07-10T12:06:24;98933.75;;;29.74;49.78
7668;BME280;3876;42.204;24.686;2022-07-10T12:08:51;98931.88;;;29.82;51.81
7668;BME280;3876;42.204;24.686;2022-07-10T12:11:21;98935.66;;;29.65;47.65
7668;BME280;3876;42.204;24.686;2022-07-10T12:13:49;98936.41;;;29.74;49.60
7668;BME280;3876;42.204;24.686;2022-07-10T12:16:17;98927.72;;;29.88;50.57
7668;BME280;3876;42.204;24.686;2022-07-10T12:18:45;98929.09;;;29.98;48.18
7668;BME280;3876;42.204;24.686;2022-07-10T12:21:13;98930.16;;;29.89;47.01
7668;BME280;3876;42.204;24.686;2022-07-10T12:23:43;98914.50;;;29.88;46.14
7668;BME280;3876;42.204;24.686;2022-07-10T12:26:12;98918.00;;;29.80;45.61
7668;BME280;3876;42.204;24.686;2022-07-10T12:28:54;98917.88;;;29.59;46.57
7668;BME280;3876;42.204;24.686;2022-07-10T12:31:26;98921.63;;;29.64;48.13
7668;BME280;3876;42.204;24.686;2022-07-10T12:33:54;98920.63;;;29.65;48.12
7668;BME280;3876;42.204;24.686;2022-07-10T12:36:24;98908.44;;;29.79;48.88
7668;BME280;3876;42.204;24.686;2022-07-10T12:38:55;98895.94;;;29.73;48.86
7668;BME280;3876;42.204;24.686;2022-07-10T12:41:24;98909.00;;;29.89;49.38
7668;BME280;3876;42.204;24.686;2022-07-10T12:43:53;98910.13;;;29.95;48.26
7668;BME280;3876;42.204;24.686;2022-07-10T12:46:21;98905.38;;;29.90;47.97
7668;BME280;3876;42.204;24.686;2022-07-10T12:49:05;98912.50;;;30.04;48.74
7668;BME280;3876;42.204;24.686;2022-07-10T12:51:33;98904.47;;;30.12;48.99
7668;BME280;3876;42.204;24.686;2022-07-10T12:54:00;98906.50;;;30.10;47.75
7668;BME280;3876;42.204;24.686;2022-07-10T12:56:31;98894.75;;;29.98;45.63
7668;BME280;3876;42.204;24.686;2022-07-10T12:59:02;98905.41;;;30.05;48.48
7668;BME280;3876;42.204;24.686;2022-07-10T13:01:39;98894.53;;;30.00;48.11
7668;BME280;3876;42.204;24.686;2022-07-10T13:04:07;98890.72;;;29.88;47.41
7668;BME280;3876;42.204;24.686;2022-07-10T13:06:35;98898.81;;;29.86;47.14
7668;BME280;3876;42.204;24.686;2022-07-10T13:09:08;98896.41;;;29.77;48.19
7668;BME280;3876;42.204;24.686;2022-07-10T13:11:44;98890.94;;;29.78;47.08
7668;BME280;3876;42.204;24.686;2022-07-10T13:14:12;98879.88;;;29.60;48.99
7668;BME280;3876;42.204;24.686;2022-07-10T13:16:39;98882.47;;;29.68;50.10
7668;BME280;3876;42.204;24.686;2022-07-10T13:19:06;98883.28;;;29.68;50.15
7668;BME280;3876;42.204;24.686;2022-07-10T13:21:33;98889.50;;;29.76;48.85